Time;durP1;ratioP1;P1;durP2;ratioP2;P2;SDS_P1;SDS_P2;PMS_P1;PMS_P2;Temp;Humidity;BMP_temperature;BMP_pressure;BME280_temperature;BME280_humidity;BME280_pressure;Samples;Min_cycle;Max_cycle;Signal;HPM_P1;HPM_P2
2024/04/08 00:01:30;;;;;;;4.37;2.27;;;19.90;98.20;;;;;;5021035;28;20534;-41
2024/04/08 00:03:58;;;;;;;1.83;1.50;;;19.90;98.30;;;;;;5018278;28;20486;-41
2024/04/08 00:06:24;;;;;;;2.40;2.00;;;19.90;98.30;;;;;;5017295;28;20505;-37
2024/04/08 00:08:50;;;;;;;2.83;2.10;;;19.90;98.40;;;;;;5019518;28;20424;-40
2024/04/08 00:11:17;;;;;;;2.90;1.90;;;19.90;98.40;;;;;;5018256;28;20476;-41
2024/04/08 00:13:42;;;;;;;2.10;1.80;;;19.80;98.40;;;;;;5015755;28;20546;-41
2024/04/08 00:16:09;;;;;;;2.80;1.67;;;19.80;98.40;;;;;;5001390;28;20477;-41
2024/04/08 00:18:37;;;;;;;4.63;2.33;;;19.80;98.40;;;;;;5019422;28;20228;-41
2024/04/08 00:21:06;;;;;;;2.03;1.73;;;19.80;98.40;;;;;;5019479;28;20489;-41
2024/04/08 00:23:34;;;;;;;2.83;2.27;;;19.80;98.40;;;;;;5019639;28;20431;-40
2024/04/08 00:26:04;;;;;;;3.70;2.20;;;19.80;98.40;;;;;;5018793;28;21006;-41
2024/04/08 00:28:41;;;;;;;2.30;1.57;;;19.80;98.40;;;;;;5014802;28;20449;-40
2024/04/08 00:31:10;;;;;;;4.17;1.83;;;19.80;98.40;;;;;;5017990;28;20447;-41
2024/04/08 00:33:37;;;;;;;2.80;2.00;;;19.70;98.40;;;;;;5018780;28;20428;-40
2024/04/08 00:36:06;;;;;;;5.40;2.20;;;19.70;98.50;;;;;;5018895;28;20554;-41
2024/04/08 00:38:33;;;;;;;2.47;1.50;;;19.70;98.50;;;;;;5019231;28;20441;-41
2024/04/08 00:41:03;;;;;;;2.33;1.90;;;19.70;98.50;;;;;;5018804;28;20449;-41
2024/04/08 00:43:30;;;;;;;5.00;2.23;;;19.70;98.50;;;;;;5018747;28;20425;-39
2024/04/08 00:45:57;;;;;;;3.13;2.10;;;19.70;98.50;;;;;;5019380;28;20465;-41
2024/04/08 00:48:26;;;;;;;2.40;1.60;;;19.70;98.50;;;;;;5017547;28;20457;-41
2024/04/08 00:50:53;;;;;;;4.07;1.93;;;19.70;98.50;;;;;;5018615;28;20528;-41
2024/04/08 00:53:22;;;;;;;3.87;2.63;;;19.70;98.50;;;;;;5016403;28;20442;-41
2024/04/08 00:55:52;;;;;;;3.37;2.00;;;19.70;98.60;;;;;;5017431;28;20539;-41
2024/04/08 00:58:21;;;;;;;2.57;2.03;;;19.70;98.60;;;;;;5015596;28;21289;-42
2024/04/08 01:00:47;;;;;;;3.30;2.07;;;19.60;98.50;;;;;;5018564;28;20524;-42
2024/04/08 01:03:15;;;;;;;2.30;2.10;;;19.60;98.60;;;;;;5016212;28;20427;-42
2024/04/08 01:05:46;;;;;;;4.70;2.17;;;19.60;98.60;;;;;;5018993;28;20487;-42
2024/04/08 01:08:12;;;;;;;2.53;2.10;;;19.60;98.60;;;;;;5013714;28;20424;-41
2024/04/08 01:10:40;;;;;;;2.03;1.83;;;19.60;98.60;;;;;;5000695;28;21336;-41
2024/04/08 01:13:08;;;;;;;2.87;1.90;;;19.60;98.70;;;;;;5018273;28;21369;-42
2024/04/08 01:15:34;;;;;;;2.73;1.87;;;19.60;98.70;;;;;;5015729;28;20421;-42
2024/04/08 01:18:00;;;;;;;2.17;1.97;;;19.50;98.60;;;;;;5016642;28;20424;-41
2024/04/08 01:20:26;;;;;;;4.60;2.17;;;19.60;98.70;;;;;;5019507;28;20827;-40
2024/04/08 01:22:55;;;;;;;5.10;2.40;;;19.50;98.70;;;;;;5018294;28;20438;-42
2024/04/08 01:25:23;;;;;;;2.13;1.93;;;19.50;98.70;;;;;;5016246;28;21038;-41
2024/04/08 01:27:53;;;;;;;5.00;2.30;;;19.50;98.70;;;;;;5016398;28;20458;-41
2024/04/08 01:30:22;;;;;;;3.13;2.23;;;19.50;98.80;;;;;;5014446;28;20912;-41
2024/04/08 01:32:51;;;;;;;3.33;1.93;;;19.50;98.80;;;;;;5017116;28;20965;-42
2024/04/08 01:35:17;;;;;;;2.30;1.90;;;19.50;98.90;;;;;;5015316;28;20452;-43
2024/04/08 01:37:46;;;;;;;5.37;2.00;;;19.50;98.80;;;;;;5017660;28;20464;-41
2024/04/08 01:40:14;;;;;;;4.97;2.00;;;19.50;98.90;;;;;;5015906;28;20889;-42
2024/04/08 01:42:41;;;;;;;3.20;2.00;;;19.40;98.80;;;;;;5015533;28;20466;-42
2024/04/08 01:45:10;;;;;;;3.03;2.30;;;19.40;98.80;;;;;;5016697;28;20442;-41
2024/04/08 01:47:38;;;;;;;2.73;1.93;;;19.40;99.00;;;;;;5016596;28;20437;-41
2024/04/08 01:50:07;;;;;;;1.83;1.60;;;19.40;98.90;;;;;;5016894;28;20220;-41
2024/04/08 01:52:35;;;;;;;2.70;2.00;;;19.40;98.90;;;;;;5017703;28;20431;-41
2024/04/08 01:55:03;;;;;;;5.03;2.40;;;19.40;98.90;;;;;;4998916;28;20452;-41
2024/04/08 01:57:31;;;;;;;3.60;1.73;;;19.40;98.90;;;;;;5016974;28;20556;-41
2024/04/08 02:00:02;;;;;;;3.37;1.70;;;19.40;98.90;;;;;;5016759;28;20874;-41
2024/04/08 02:02:38;;;;;;;3.70;2.10;;;19.40;98.90;;;;;;5018066;28;20527;-42
2024/04/08 02:05:04;;;;;;;3.20;1.90;;;19.40;99.00;;;;;;5017338;28;20539;-41
2024/04/08 02:07:30;;;;;;;3.87;2.10;;;19.40;99.00;;;;;;5017032;28;20206;-41
2024/04/08 02:09:59;;;;;;;2.23;2.03;;;19.30;99.00;;;;;;5016703;28;20482;-41
2024/04/08 02:12:26;;;;;;;2.43;1.73;;;19.30;99.00;;;;;;5015493;28;20523;-41
2024/04/08 02:14:52;;;;;;;4.70;2.50;;;19.30;99.00;;;;;;5017578;28;20489;-39
2024/04/08 02:17:18;;;;;;;3.73;2.27;;;19.30;99.00;;;;;;5016831;28;20479;-41
2024/04/08 02:19:45;;;;;;;3.43;2.30;;;19.30;99.10;;;;;;5016915;28;20574;-41
2024/04/08 02:22:10;;;;;;;2.80;2.30;;;19.30;99.10;;;;;;5017056;28;21021;-42
2024/04/08 02:24:37;;;;;;;3.03;2.00;;;19.30;99.10;;;;;;5017567;28;20432;-40
2024/04/08 02:27:04;;;;;;;3.80;2.27;;;19.30;99.10;;;;;;5017138;28;20214;-39
2024/04/08 02:29:32;;;;;;;4.63;2.40;;;19.30;99.10;;;;;;5016057;28;20457;-42
2024/04/08 02:32:00;;;;;;;3.63;2.37;;;19.30;99.50;;;;;;5017430;28;20495;-41
2024/04/08 02:34:26;;;;;;;5.33;2.00;;;19.30;99.20;;;;;;5016488;28;20428;-41
2024/04/08 02:36:54;;;;;;;4.30;2.30;;;19.20;99.10;;;;;;5002483;28;20470;-41
2024/04/08 02:39:24;;;;;;;4.33;2.17;;;19.20;99.10;;;;;;5015412;28;21050;-42
2024/04/08 02:41:52;;;;;;;2.40;1.97;;;19.20;99.20;;;;;;4985090;28;20478;-38
2024/04/08 02:44:23;;;;;;;4.40;2.37;;;19.20;99.20;;;;;;4985202;28;20471;-39
2024/04/08 02:46:51;;;;;;;2.97;2.10;;;19.20;99.20;;;;;;5017148;28;20434;-39
2024/04/08 02:49:23;;;;;;;2.97;2.00;;;19.20;99.20;;;;;;5002168;28;20858;-37
2024/04/08 02:51:49;;;;;;;3.10;2.10;;;19.20;99.30;;;;;;5004917;28;20943;-39
2024/04/08 02:54:17;;;;;;;3.87;2.30;;;19.20;99.30;;;;;;5004947;28;20446;-39
2024/04/08 02:56:43;;;;;;;3.80;2.20;;;19.10;99.20;;;;;;5020094;28;21018;-39
2024/04/08 02:59:09;;;;;;;3.83;2.23;;;19.10;99.30;;;;;;5018577;28;20439;-39
2024/04/08 03:01:35;;;;;;;3.80;1.90;;;19.10;99.30;;;;;;5000922;28;20201;-36
2024/04/08 03:04:02;;;;;;;4.03;2.30;;;19.10;99.30;;;;;;5000538;28;20977;-36
2024/04/08 03:06:32;;;;;;;4.50;2.03;;;19.10;99.30;;;;;;5016093;28;20439;-40
2024/04/08 03:08:59;;;;;;;2.40;1.80;;;19.10;99.40;;;;;;4982045;28;20448;-39
2024/04/08 03:11:25;;;;;;;2.23;1.97;;;19.10;99.40;;;;;;4999288;28;20973;-39
2024/04/08 03:13:54;;;;;;;2.37;2.03;;;19.00;99.30;;;;;;4999144;28;20428;-39
2024/04/08 03:16:20;;;;;;;2.90;2.10;;;19.10;99.40;;;;;;5016808;28;20478;-41
2024/04/08 03:18:46;;;;;;;2.87;2.03;;;19.00;99.40;;;;;;4982770;28;20470;-37
2024/04/08 03:21:14;;;;;;;3.40;1.90;;;19.00;99.40;;;;;;5000611;28;20450;-41
2024/04/08 03:23:43;;;;;;;3.07;1.87;;;19.00;99.40;;;;;;5016834;28;21145;-41
2024/04/08 03:26:12;;;;;;;2.60;1.93;;;19.00;99.40;;;;;;5016642;28;20478;-41
2024/04/08 03:28:39;;;;;;;3.47;1.90;;;19.00;99.40;;;;;;5011957;28;20475;-39
2024/04/08 03:31:06;;;;;;;3.03;2.07;;;19.00;99.40;;;;;;4999017;28;21217;-38
2024/04/08 03:33:33;;;;;;;4.60;2.37;;;19.00;99.40;;;;;;5001295;28;20427;-41
2024/04/08 03:36:08;;;;;;;3.50;2.10;;;18.90;99.40;;;;;;5002878;28;20491;-39
2024/04/08 03:38:37;;;;;;;2.30;1.93;;;19.00;99.50;;;;;;5004106;28;20551;-39
2024/04/08 03:41:05;;;;;;;3.03;2.30;;;18.90;99.40;;;;;;5020108;28;20486;-40
2024/04/08 03:43:32;;;;;;;2.83;2.13;;;18.90;99.40;;;;;;5020042;28;20423;-39
2024/04/08 03:46:00;;;;;;;2.90;1.93;;;18.90;99.40;;;;;;5019241;28;20443;-41
2024/04/08 03:48:27;;;;;;;2.37;1.83;;;18.90;99.40;;;;;;5004879;28;20885;-40
2024/04/08 03:51:09;;;;;;;3.27;2.10;;;18.80;99.40;;;;;;5019795;28;20455;-38
2024/04/08 03:53:38;;;;;;;3.60;2.17;;;18.90;99.40;;;;;;5019823;28;20428;-40
2024/04/08 03:56:11;;;;;;;2.97;2.23;;;18.90;99.40;;;;;;5019315;28;20566;-38
2024/04/08 03:58:41;;;;;;;2.27;2.07;;;18.80;99.40;;;;;;5019698;28;21263;-40
2024/04/08 04:01:09;;;;;;;2.93;1.90;;;18.80;99.40;;;;;;5019111;28;20477;-39
2024/04/08 04:03:40;;;;;;;2.70;2.20;;;18.80;99.50;;;;;;5002362;28;20467;-40
2024/04/08 04:06:06;;;;;;;2.77;1.80;;;18.80;99.50;;;;;;5018993;28;20551;-38
2024/04/08 04:08:33;;;;;;;2.00;1.80;;;18.80;99.50;;;;;;5019066;28;20428;-41
2024/04/08 04:11:02;;;;;;;2.43;1.67;;;18.80;99.50;;;;;;5019421;28;21366;-40
2024/04/08 04:13:28;;;;;;;2.67;2.10;;;18.80;99.50;;;;;;4984351;28;20542;-37
2024/04/08 04:15:54;;;;;;;2.10;1.90;;;18.80;99.50;;;;;;5019427;28;20467;-40
2024/04/08 04:18:20;;;;;;;2.70;2.10;;;18.80;99.50;;;;;;5018744;28;20784;-38
2024/04/08 04:20:46;;;;;;;3.70;1.80;;;18.80;99.50;;;;;;5019090;28;20455;-37
2024/04/08 04:23:16;;;;;;;2.43;2.00;;;18.70;99.50;;;;;;5019145;28;20433;-39
2024/04/08 04:25:42;;;;;;;2.47;2.23;;;18.70;99.50;;;;;;5019580;28;20485;-39
2024/04/08 04:28:08;;;;;;;4.07;2.53;;;18.70;99.50;;;;;;5001602;28;20890;-40
2024/04/08 04:30:34;;;;;;;3.00;2.20;;;18.70;99.50;;;;;;5018144;28;20954;-41
2024/04/08 04:33:01;;;;;;;3.20;1.77;;;18.70;99.50;;;;;;5000887;28;20497;-40
2024/04/08 04:35:27;;;;;;;2.10;1.90;;;18.70;99.50;;;;;;4999921;28;21427;-41
2024/04/08 04:37:56;;;;;;;3.10;2.00;;;18.70;99.50;;;;;;5020434;28;20639;-39
2024/04/08 04:40:22;;;;;;;3.40;2.53;;;18.70;99.50;;;;;;5018368;28;20474;-39
2024/04/08 04:42:48;;;;;;;3.20;2.00;;;18.70;99.50;;;;;;5015872;28;20425;-41
2024/04/08 04:45:16;;;;;;;3.80;2.30;;;18.60;99.50;;;;;;5000496;28;21332;-41
2024/04/08 04:47:44;;;;;;;2.63;1.97;;;18.60;99.50;;;;;;5015223;28;20431;-39
2024/04/08 04:50:11;;;;;;;4.27;1.87;;;18.60;99.50;;;;;;5018834;28;20526;-40
2024/04/08 04:52:36;;;;;;;2.80;2.57;;;18.60;99.50;;;;;;5018567;28;20468;-38
2024/04/08 04:55:03;;;;;;;3.77;2.17;;;18.60;99.60;;;;;;5017428;28;20588;-38
2024/04/08 04:57:29;;;;;;;3.23;2.03;;;18.60;99.60;;;;;;5001356;28;20559;-39
2024/04/08 04:59:55;;;;;;;4.93;2.13;;;18.60;99.60;;;;;;5001790;28;20504;-42
2024/04/08 05:02:22;;;;;;;2.67;2.00;;;18.60;99.60;;;;;;5002910;28;20451;-40
2024/04/08 05:04:51;;;;;;;2.67;1.80;;;18.60;99.60;;;;;;5013742;28;20703;-42
2024/04/08 05:07:17;;;;;;;2.73;1.87;;;18.50;99.60;;;;;;4999079;28;21185;-41
2024/04/08 05:09:43;;;;;;;2.33;1.80;;;18.50;99.60;;;;;;5018824;28;20505;-39
2024/04/08 05:12:09;;;;;;;1.70;1.60;;;18.50;99.60;;;;;;5007075;28;20432;-41
2024/04/08 05:14:37;;;;;;;4.40;1.77;;;18.50;99.60;;;;;;5018804;28;20445;-41
2024/04/08 05:17:03;;;;;;;1.90;1.80;;;18.50;99.60;;;;;;5001086;28;20467;-40
2024/04/08 05:19:29;;;;;;;2.50;2.27;;;18.50;99.70;;;;;;5018964;28;20482;-41
2024/04/08 05:21:57;;;;;;;2.87;2.23;;;18.50;99.70;;;;;;5018891;28;20506;-40
2024/04/08 05:24:23;;;;;;;1.93;1.63;;;18.50;99.70;;;;;;5007335;28;20450;-41
2024/04/08 05:26:51;;;;;;;2.20;1.90;;;18.50;99.70;;;;;;4999653;28;20464;-43
2024/04/08 05:29:17;;;;;;;2.17;1.90;;;18.50;99.70;;;;;;5004592;28;20487;-42
2024/04/08 05:31:43;;;;;;;2.57;2.37;;;18.40;99.70;;;;;;5000654;28;20427;-39
2024/04/08 05:34:12;;;;;;;3.20;1.90;;;18.40;99.70;;;;;;5016543;28;20420;-40
2024/04/08 05:36:40;;;;;;;2.40;2.10;;;18.40;99.70;;;;;;5017180;28;20471;-41
2024/04/08 05:39:06;;;;;;;2.40;2.20;;;18.40;99.80;;;;;;5017918;28;20435;-41
2024/04/08 05:41:32;;;;;;;2.77;2.00;;;18.40;99.80;;;;;;5017833;28;20963;-39
2024/04/08 05:43:58;;;;;;;3.30;2.37;;;18.40;99.80;;;;;;5018220;28;21175;-42
2024/04/08 05:46:27;;;;;;;3.40;2.57;;;18.40;99.80;;;;;;5017604;28;20440;-39
2024/04/08 05:48:53;;;;;;;3.63;2.00;;;18.40;99.80;;;;;;5018220;28;20869;-40
2024/04/08 05:51:22;;;;;;;3.00;2.43;;;18.40;99.80;;;;;;5018359;28;20497;-40
2024/04/08 05:53:48;;;;;;;2.30;2.10;;;18.40;99.90;;;;;;5019244;28;20446;-40
2024/04/08 05:56:14;;;;;;;2.50;1.83;;;18.40;99.90;;;;;;4999166;28;20471;-41
2024/04/08 05:58:43;;;;;;;2.70;2.30;;;18.40;99.90;;;;;;5012983;28;20427;-41
2024/04/08 06:01:09;;;;;;;2.80;1.97;;;18.30;99.90;;;;;;5016510;28;20965;-40
2024/04/08 06:03:38;;;;;;;3.00;2.03;;;18.30;99.90;;;;;;5016123;28;21121;-40
2024/04/08 06:06:06;;;;;;;3.93;2.27;;;18.30;99.90;;;;;;5000366;28;20432;-39
2024/04/08 06:08:35;;;;;;;4.60;2.10;;;18.30;99.90;;;;;;4999363;28;20432;-40
2024/04/08 06:11:04;;;;;;;2.30;2.00;;;18.30;99.90;;;;;;5015870;28;20452;-41
2024/04/08 06:13:31;;;;;;;3.10;2.40;;;18.30;99.90;;;;;;5018615;28;20443;-40
2024/04/08 06:15:57;;;;;;;2.47;2.23;;;18.30;99.80;;;;;;5017276;28;20452;-41
2024/04/08 06:18:23;;;;;;;5.27;2.37;;;18.30;99.90;;;;;;5016697;28;21343;-40
2024/04/08 06:20:56;;;;;;;3.20;2.50;;;18.30;99.90;;;;;;5015610;28;20878;-41
2024/04/08 06:23:25;;;;;;;2.07;1.87;;;18.30;99.90;;;;;;5017014;28;20463;-40
2024/04/08 06:26:02;;;;;;;2.60;2.40;;;18.30;99.90;;;;;;5016425;28;20499;-40
2024/04/08 06:28:31;;;;;;;6.00;2.33;;;18.30;99.90;;;;;;5032919;28;20450;-40
2024/04/08 06:31:01;;;;;;;2.50;2.30;;;18.30;99.90;;;;;;5015039;28;20456;-40
2024/04/08 06:33:30;;;;;;;3.80;2.70;;;18.30;99.90;;;;;;5014982;28;20430;-40
2024/04/08 06:35:58;;;;;;;4.60;2.50;;;18.30;99.90;;;;;;5014387;28;20463;-41
2024/04/08 06:38:25;;;;;;;2.57;2.07;;;18.20;99.90;;;;;;5015780;28;20465;-41
2024/04/08 06:40:53;;;;;;;2.57;2.10;;;18.30;99.90;;;;;;4998233;28;21240;-41
2024/04/08 06:43:22;;;;;;;2.50;1.83;;;18.30;99.90;;;;;;5015020;28;20443;-37
2024/04/08 06:45:55;;;;;;;4.93;2.27;;;18.30;99.90;;;;;;5014836;28;20416;-41
2024/04/08 06:48:21;;;;;;;3.23;2.13;;;18.20;99.90;;;;;;5015202;28;20435;-38
2024/04/08 06:50:51;;;;;;;4.00;2.20;;;18.20;99.90;;;;;;5013066;28;20455;-40
2024/04/08 06:53:17;;;;;;;2.10;1.70;;;18.30;99.90;;;;;;5016039;28;20424;-41
2024/04/08 06:55:46;;;;;;;3.30;2.00;;;18.30;99.90;;;;;;5012593;28;21033;-40
2024/04/08 06:58:17;;;;;;;2.17;1.90;;;18.30;99.90;;;;;;5015281;28;20446;-41
2024/04/08 07:00:46;;;;;;;3.57;2.30;;;18.20;99.80;;;;;;5017987;28;21189;-40
2024/04/08 07:03:12;;;;;;;3.23;2.33;;;18.20;99.80;;;;;;5015712;28;21283;-39
2024/04/08 07:05:45;;;;;;;3.47;2.20;;;18.20;99.80;;;;;;5017946;28;20514;-40
2024/04/08 07:08:16;;;;;;;2.70;1.73;;;18.20;99.80;;;;;;5021292;28;20423;-42
2024/04/08 07:10:45;;;;;;;4.67;2.47;;;18.30;99.80;;;;;;5021384;28;20537;-42
2024/04/08 07:13:12;;;;;;;4.00;2.40;;;18.30;99.80;;;;;;5021137;28;20882;-41
2024/04/08 07:15:43;;;;;;;2.60;1.97;;;18.20;99.70;;;;;;5019043;28;20420;-40
2024/04/08 07:18:10;;;;;;;2.53;2.33;;;18.30;99.70;;;;;;5019144;28;20435;-40
2024/04/08 07:20:38;;;;;;;2.37;2.00;;;18.30;99.70;;;;;;5021073;28;20898;-42
2024/04/08 07:23:04;;;;;;;2.03;1.80;;;18.30;99.70;;;;;;5020539;28;20549;-43
2024/04/08 07:25:31;;;;;;;4.27;2.63;;;18.30;99.70;;;;;;5022491;28;20523;-40
2024/04/08 07:27:57;;;;;;;2.63;2.13;;;18.30;99.80;;;;;;5020194;28;20558;-41
2024/04/08 07:30:26;;;;;;;2.50;2.30;;;18.30;99.90;;;;;;4993723;28;20491;-42
2024/04/08 07:32:52;;;;;;;3.93;2.20;;;18.30;99.90;;;;;;5001765;28;20439;-41
2024/04/08 07:35:20;;;;;;;2.67;2.47;;;18.30;99.90;;;;;;4983455;28;20440;-42
2024/04/08 07:37:47;;;;;;;3.30;2.20;;;18.30;99.90;;;;;;5001279;28;20468;-42
2024/04/08 07:40:14;;;;;;;2.97;2.23;;;18.30;99.90;;;;;;4983755;28;20483;-42
2024/04/08 07:44:13;;;;;;;2.03;1.83;;;18.30;99.90;;;;;;5485365;25;20552;-42
2024/04/08 07:46:39;;;;;;;3.40;2.60;;;18.30;99.80;;;;;;5486524;26;20542;-42
2024/04/08 07:49:07;;;;;;;2.73;2.00;;;18.30;99.90;;;;;;5486351;25;21121;-41
2024/04/08 07:51:34;;;;;;;6.13;2.83;;;18.30;99.80;;;;;;5479179;26;20516;-41
2024/04/08 07:54:00;;;;;;;2.60;2.07;;;18.30;99.80;;;;;;5481049;26;20530;-40
2024/04/08 07:56:25;;;;;;;2.90;2.13;;;18.30;99.90;;;;;;5446337;26;20984;-43
2024/04/08 07:58:53;;;;;;;2.70;1.90;;;18.30;99.90;;;;;;5470631;26;20477;-41
2024/04/08 08:01:21;;;;;;;3.60;2.07;;;18.30;99.90;;;;;;5483148;25;20464;-41
2024/04/08 08:03:47;;;;;;;3.40;2.10;;;18.30;99.90;;;;;;5484285;25;20545;-40
2024/04/08 08:06:14;;;;;;;2.50;2.00;;;18.30;99.90;;;;;;5483021;25;21507;-41
2024/04/08 08:08:40;;;;;;;2.10;1.90;;;18.30;99.90;;;;;;5480911;25;20586;-42
2024/04/08 08:11:06;;;;;;;2.07;1.87;;;18.30;99.80;;;;;;5475675;25;20528;-41
2024/04/08 08:13:34;;;;;;;4.60;2.40;;;18.30;99.80;;;;;;5470473;26;20514;-42
2024/04/08 08:16:01;;;;;;;2.50;2.30;;;18.30;99.80;;;;;;5417715;26;20631;-41
2024/04/08 08:18:31;;;;;;;3.83;2.10;;;18.30;99.80;;;;;;5448226;26;20483;-41
2024/04/08 08:21:01;;;;;;;3.97;2.23;;;18.30;99.80;;;;;;5482778;25;20527;-41
2024/04/08 08:23:28;;;;;;;3.00;2.50;;;18.30;99.80;;;;;;5472286;25;21034;-41
2024/04/08 08:25:56;;;;;;;4.23;2.20;;;18.30;99.90;;;;;;5482648;25;20698;-41
2024/04/08 08:28:25;;;;;;;4.57;2.60;;;18.30;99.90;;;;;;5483714;25;20779;-39
2024/04/08 08:30:52;;;;;;;3.40;2.80;;;18.30;99.90;;;;;;5479907;26;20456;-41
2024/04/08 08:33:21;;;;;;;3.17;1.90;;;18.30;99.90;;;;;;5466934;26;20633;-41
2024/04/08 08:35:48;;;;;;;2.87;2.23;;;18.30;99.90;;;;;;5481183;25;20578;-39
2024/04/08 08:38:16;;;;;;;5.10;2.83;;;18.30;99.90;;;;;;5478786;26;20513;-39
2024/04/08 08:40:46;;;;;;;3.60;2.67;;;18.30;99.90;;;;;;5473980;26;20463;-40
2024/04/08 08:43:12;;;;;;;3.67;2.67;;;18.40;99.90;;;;;;5478587;26;21087;-40
2024/04/08 08:45:46;;;;;;;3.80;2.90;;;18.40;99.90;;;;;;5471181;25;20452;-39
2024/04/08 08:48:12;;;;;;;4.63;2.90;;;18.40;99.90;;;;;;5418211;26;21413;-41
2024/04/08 08:50:41;;;;;;;2.90;2.60;;;18.30;99.90;;;;;;5475520;26;20686;-42
2024/04/08 08:53:09;;;;;;;4.67;2.93;;;18.30;99.90;;;;;;5481672;26;21169;-43
2024/04/08 08:55:37;;;;;;;6.40;3.33;;;18.40;99.90;;;;;;5459749;26;20843;-39
2024/04/08 08:58:12;;;;;;;4.37;3.00;;;18.40;99.90;;;;;;5458045;26;20450;-42
2024/04/08 09:00:41;;;;;;;5.50;3.33;;;18.40;99.90;;;;;;5433552;26;20460;-42
2024/04/08 09:03:13;;;;;;;6.00;3.60;;;18.40;99.90;;;;;;5459784;26;20783;-41
2024/04/08 09:05:39;;;;;;;6.20;3.43;;;18.40;99.90;;;;;;5457780;26;20465;-39
2024/04/08 09:08:08;;;;;;;3.97;3.10;;;18.40;99.90;;;;;;5459469;26;20472;-39
2024/04/08 09:10:45;;;;;;;5.33;3.47;;;18.40;99.90;;;;;;5461133;26;20908;-40
2024/04/08 09:13:22;;;;;;;3.30;2.80;;;18.50;99.90;;;;;;5469323;26;20535;-41
2024/04/08 09:15:50;;;;;;;7.50;3.07;;;18.50;99.90;;;;;;5451922;26;21297;-39
2024/04/08 09:18:20;;;;;;;3.10;2.80;;;18.50;99.90;;;;;;5460319;26;20595;-41
2024/04/08 09:20:46;;;;;;;3.23;2.93;;;18.50;99.90;;;;;;5435924;26;21388;-42
2024/04/08 09:23:13;;;;;;;3.90;2.83;;;18.50;99.90;;;;;;5463347;26;20469;-41
2024/04/08 09:25:40;;;;;;;6.90;3.37;;;18.50;99.90;;;;;;5453566;26;21080;-42
2024/04/08 09:28:07;;;;;;;5.23;3.43;;;18.50;99.90;;;;;;5423180;26;21325;-42
2024/04/08 09:30:34;;;;;;;4.97;2.77;;;18.50;99.90;;;;;;5464146;26;20573;-42
2024/04/08 09:33:00;;;;;;;3.10;2.80;;;18.60;99.90;;;;;;5462612;26;20480;-42
2024/04/08 09:35:31;;;;;;;4.73;2.97;;;18.60;99.90;;;;;;5458706;26;20508;-39
2024/04/08 09:37:57;;;;;;;4.83;3.03;;;18.60;99.90;;;;;;5459599;26;20811;-41
2024/04/08 09:40:25;;;;;;;4.00;2.97;;;18.60;99.90;;;;;;5456726;26;20563;-40
2024/04/08 09:42:52;;;;;;;6.13;2.77;;;18.60;99.90;;;;;;5458312;26;20481;-40
2024/04/08 09:45:22;;;;;;;8.57;3.27;;;18.60;99.90;;;;;;5462504;26;20472;-42
2024/04/08 09:47:51;;;;;;;6.30;3.53;;;18.70;99.90;;;;;;5463131;26;21463;-39
2024/04/08 09:50:24;;;;;;;4.70;3.20;;;18.70;99.90;;;;;;5461956;26;20524;-42
2024/04/08 09:52:50;;;;;;;5.00;3.70;;;18.70;99.90;;;;;;5461214;26;21384;-42
2024/04/08 09:55:17;;;;;;;5.30;3.30;;;18.80;99.90;;;;;;5430165;26;20492;-43
2024/04/08 09:57:43;;;;;;;7.37;4.10;;;18.70;99.90;;;;;;5460431;26;20456;-41
2024/04/08 10:00:15;;;;;;;6.20;3.80;;;18.80;99.90;;;;;;5454999;26;21244;-39
2024/04/08 10:02:44;;;;;;;4.33;3.40;;;18.80;99.90;;;;;;5460492;26;21105;-41
2024/04/08 10:05:13;;;;;;;3.50;3.20;;;18.80;99.90;;;;;;5463221;26;20444;-42
2024/04/08 10:07:40;;;;;;;6.27;4.07;;;18.80;99.90;;;;;;5462353;26;20504;-39
2024/04/08 10:10:12;;;;;;;5.97;3.80;;;18.90;99.90;;;;;;5461492;26;20520;-42
2024/04/08 10:12:45;;;;;;;5.33;3.50;;;18.90;99.90;;;;;;5462199;26;20469;-39
2024/04/08 10:15:12;;;;;;;4.10;3.20;;;18.90;99.90;;;;;;5460825;26;20580;-42
2024/04/08 10:17:42;;;;;;;6.30;3.30;;;18.90;99.90;;;;;;5460713;26;20510;-41
2024/04/08 10:20:20;;;;;;;7.70;3.37;;;18.90;99.90;;;;;;5463761;26;20516;-43
2024/04/08 10:22:47;;;;;;;4.33;3.67;;;19.00;99.90;;;;;;5446075;26;21749;-38
2024/04/08 10:25:36;;;;;;;5.53;3.30;;;18.90;99.90;;;;;;5459769;26;20461;-40
2024/04/08 10:28:14;;;;;;;3.60;3.13;;;19.00;99.90;;;;;;5459284;26;20536;-40
2024/04/08 10:30:43;;;;;;;7.70;3.57;;;19.00;99.90;;;;;;5462453;26;20477;-38
2024/04/08 10:33:12;;;;;;;6.00;3.70;;;19.00;99.90;;;;;;5462542;26;20468;-42
2024/04/08 10:35:38;;;;;;;5.97;3.43;;;19.00;99.90;;;;;;5434594;26;20456;-42
2024/04/08 10:38:04;;;;;;;5.80;3.90;;;19.00;99.90;;;;;;5432620;26;20812;-40
2024/04/08 10:40:31;;;;;;;5.60;3.27;;;19.00;99.90;;;;;;5456839;26;21044;-41
2024/04/08 10:43:06;;;;;;;4.13;3.73;;;19.10;99.90;;;;;;5456740;26;21028;-38
2024/04/08 10:45:33;;;;;;;4.10;3.63;;;19.10;99.90;;;;;;5458409;26;21613;-38
2024/04/08 10:48:00;;;;;;;5.43;3.57;;;19.10;99.90;;;;;;5459665;26;20513;-40
2024/04/08 10:50:29;;;;;;;5.17;4.00;;;19.20;99.90;;;;;;5461403;26;22546;-41
2024/04/08 10:52:56;;;;;;;4.50;2.97;;;19.10;99.90;;;;;;5457290;26;20469;-41
2024/04/08 10:55:22;;;;;;;7.07;4.20;;;19.20;99.90;;;;;;5446146;26;20517;-38
2024/04/08 10:57:49;;;;;;;7.00;3.97;;;19.20;99.90;;;;;;5460240;26;20547;-42
2024/04/08 11:00:17;;;;;;;4.40;4.00;;;19.20;99.90;;;;;;5455808;26;20470;-38
2024/04/08 11:02:43;;;;;;;4.70;3.70;;;19.30;99.90;;;;;;5457739;26;20469;-38
2024/04/08 11:05:12;;;;;;;4.57;4.17;;;19.30;99.90;;;;;;5418017;26;20900;-38
2024/04/08 11:07:38;;;;;;;3.43;3.13;;;19.30;99.90;;;;;;5454963;26;20520;-36
2024/04/08 11:10:06;;;;;;;5.97;4.00;;;19.30;99.90;;;;;;5431570;26;20603;-35
2024/04/08 11:12:34;;;;;;;5.83;3.47;;;19.30;99.90;;;;;;5453978;26;21261;-42
2024/04/08 11:15:02;;;;;;;3.90;3.50;;;19.30;99.90;;;;;;5451465;26;20525;-41
2024/04/08 11:17:30;;;;;;;6.80;3.70;;;19.40;99.90;;;;;;5453410;26;21318;-42
2024/04/08 11:19:57;;;;;;;3.60;3.03;;;19.40;99.90;;;;;;5458876;26;20474;-44
2024/04/08 11:22:28;;;;;;;5.43;4.07;;;19.40;99.90;;;;;;5462499;26;20755;-39
2024/04/08 11:24:54;;;;;;;8.03;3.90;;;19.40;99.90;;;;;;5452935;26;21019;-43
2024/04/08 11:27:24;;;;;;;4.97;3.40;;;19.40;99.90;;;;;;5453719;26;20474;-42
2024/04/08 11:29:53;;;;;;;6.63;3.57;;;19.40;99.90;;;;;;5436557;26;20477;-42
2024/04/08 11:32:27;;;;;;;6.87;4.40;;;19.50;99.90;;;;;;5452829;26;20468;-43
2024/04/08 11:34:53;;;;;;;5.83;4.13;;;19.50;99.90;;;;;;5451103;26;20599;-44
2024/04/08 11:37:19;;;;;;;4.03;3.13;;;19.50;99.90;;;;;;5413927;26;21066;-43
2024/04/08 11:39:45;;;;;;;4.00;3.60;;;19.60;99.90;;;;;;5456930;26;20461;-38
2024/04/08 11:42:12;;;;;;;4.60;3.30;;;19.60;99.90;;;;;;5443204;26;20582;-43
2024/04/08 11:44:43;;;;;;;3.90;3.50;;;19.60;99.90;;;;;;5456551;26;20956;-42
2024/04/08 11:47:18;;;;;;;3.73;3.33;;;19.60;99.90;;;;;;5448710;26;20979;-38
2024/04/08 11:49:47;;;;;;;6.50;3.83;;;19.60;99.90;;;;;;5457180;26;20586;-39
2024/04/08 11:52:13;;;;;;;4.80;3.60;;;19.70;99.90;;;;;;5454258;26;20462;-41
2024/04/08 11:54:42;;;;;;;3.90;3.47;;;19.70;99.90;;;;;;5455326;26;20590;-44
2024/04/08 11:57:09;;;;;;;5.30;3.37;;;19.60;99.90;;;;;;5402956;26;20583;-40
2024/04/08 11:59:37;;;;;;;5.20;3.60;;;19.70;99.90;;;;;;5424088;26;21314;-40
2024/04/08 12:02:04;;;;;;;8.23;4.03;;;19.70;99.90;;;;;;5453211;26;20564;-40
2024/04/08 12:04:30;;;;;;;7.50;3.70;;;19.70;99.90;;;;;;5459509;26;20985;-41
2024/04/08 12:06:56;;;;;;;6.07;3.80;;;19.70;99.90;;;;;;5460131;26;20489;-41
2024/04/08 12:09:23;;;;;;;5.47;3.67;;;19.80;99.90;;;;;;5451340;26;20476;-43
2024/04/08 12:11:50;;;;;;;6.23;3.87;;;19.80;99.90;;;;;;5449397;26;21485;-43
2024/04/08 12:14:18;;;;;;;5.33;3.27;;;19.80;99.90;;;;;;5451749;26;20520;-41
2024/04/08 12:16:45;;;;;;;9.07;4.30;;;19.80;99.90;;;;;;5453852;26;20526;-41
2024/04/08 12:19:11;;;;;;;4.87;3.90;;;19.80;99.90;;;;;;5460771;26;20472;-43
2024/04/08 12:21:37;;;;;;;4.90;3.53;;;19.90;99.90;;;;;;5424301;26;20513;-43
2024/04/08 12:24:04;;;;;;;6.40;3.97;;;19.90;99.90;;;;;;5452955;26;20584;-43
2024/04/08 12:26:30;;;;;;;6.17;3.60;;;19.90;99.90;;;;;;5443955;26;20473;-42
2024/04/08 12:28:56;;;;;;;6.17;3.90;;;19.90;99.90;;;;;;5454163;26;20468;-41
2024/04/08 12:31:22;;;;;;;5.07;3.70;;;20.00;99.90;;;;;;5462167;26;20516;-39
2024/04/08 12:33:48;;;;;;;6.97;3.90;;;20.00;99.90;;;;;;5412774;26;20478;-41
2024/04/08 12:36:15;;;;;;;7.33;4.07;;;20.00;99.90;;;;;;5397201;26;20461;-43
2024/04/08 12:38:43;;;;;;;7.30;5.27;;;20.00;99.90;;;;;;5462552;26;20468;-41
2024/04/08 12:41:09;;;;;;;7.10;4.10;;;20.00;99.90;;;;;;5461189;26;20525;-41
2024/04/08 12:43:35;;;;;;;6.60;4.60;;;20.00;99.90;;;;;;5463489;26;20472;-40
2024/04/08 12:46:05;;;;;;;6.30;4.07;;;20.00;99.90;;;;;;5460096;26;20467;-39
2024/04/08 12:48:33;;;;;;;4.83;3.80;;;20.00;99.90;;;;;;5457860;26;20478;-40
2024/04/08 12:50:59;;;;;;;6.17;4.50;;;20.00;99.90;;;;;;5459610;26;20462;-41
2024/04/08 12:53:25;;;;;;;9.63;4.73;;;20.00;99.80;;;;;;5461772;26;20464;-38